createdAt,value
2018-07-02T00:00:33.796Z,45.19
2018-07-02T00:03:01.329Z,45.04
2018-07-02T00:07:39.352Z,45.28
2018-07-02T00:10:08.077Z,45.88
2018-07-02T00:12:35.808Z,46.02
2018-07-02T00:15:03.595Z,45.80
2018-07-02T00:17:31.219Z,45.61
2018-07-02T00:19:58.917Z,45.61
2018-07-02T00:22:26.478Z,45.39
2018-07-02T00:24:54.099Z,45.98
2018-07-02T00:27:21.814Z,46.69
2018-07-02T00:29:49.372Z,46.76
2018-07-02T00:32:17.129Z,46.83
2018-07-02T00:34:44.670Z,46.86
2018-07-02T00:37:12.300Z,46.54
2018-07-02T00:39:40.042Z,46.62
2018-07-02T00:42:07.596Z,47.36
2018-07-02T00:44:35.322Z,47.05
2018-07-02T00:47:02.886Z,46.78
2018-07-02T00:49:30.449Z,47.24
2018-07-02T00:51:58.959Z,47.52
2018-07-02T00:54:26.497Z,47.92
2018-07-02T00:56:54.076Z,47.83
2018-07-02T00:59:21.800Z,48.39
2018-07-02T01:01:49.423Z,48.07
2018-07-02T01:04:17.135Z,48.37
2018-07-02T01:06:44.682Z,49.04
2018-07-02T01:09:12.292Z,48.94
2018-07-02T01:11:40.016Z,48.85
2018-07-02T01:14:07.614Z,48.75
2018-07-02T01:16:35.342Z,49.21
2018-07-02T01:19:02.954Z,49.25
2018-07-02T01:21:30.547Z,49.38
2018-07-02T01:23:58.321Z,49.43
2018-07-02T01:26:25.885Z,49.42
2018-07-02T01:28:53.725Z,49.53
2018-07-02T01:31:21.622Z,49.49
2018-07-02T01:33:49.278Z,49.68
2018-07-02T01:36:16.962Z,49.49
2018-07-02T01:38:44.508Z,49.93
2018-07-02T01:41:12.085Z,49.66
2018-07-02T01:43:39.833Z,50.54
2018-07-02T01:46:07.398Z,50.75
2018-07-02T01:48:35.145Z,50.25
2018-07-02T01:51:02.731Z,49.51
2018-07-02T01:53:30.282Z,49.43
2018-07-02T01:55:58.050Z,49.73
2018-07-02T01:58:25.626Z,50.01
2018-07-02T02:00:53.417Z,50.43
2018-07-02T02:03:21.007Z,50.74
2018-07-02T02:05:48.694Z,50.56
2018-07-02T02:08:16.422Z,50.65
2018-07-02T02:10:44.017Z,50.86
2018-07-02T02:13:11.702Z,51.16
2018-07-02T02:15:39.264Z,51.17
2018-07-02T02:18:06.869Z,51.36
2018-07-02T02:20:34.543Z,51.09
2018-07-02T02:23:02.080Z,51.29
2018-07-02T02:25:29.810Z,51.51
2018-07-02T02:27:57.460Z,51.65
2018-07-02T02:30:25.101Z,51.76
2018-07-02T02:32:52.842Z,51.89
2018-07-02T02:35:20.369Z,51.67
2018-07-02T02:37:47.991Z,51.57
2018-07-02T02:40:15.667Z,51.88
2018-07-02T02:42:43.224Z,51.95
2018-07-02T02:45:10.891Z,52.31
2018-07-02T02:47:38.462Z,51.98
2018-07-02T02:50:06.086Z,51.80
2018-07-02T02:52:33.686Z,52.15
2018-07-02T02:55:01.245Z,52.20
2018-07-02T02:57:28.986Z,52.13
2018-07-02T02:59:56.513Z,52.14
2018-07-02T03:02:24.154Z,52.18
2018-07-02T03:04:51.824Z,51.86
2018-07-02T03:07:19.380Z,51.60
2018-07-02T03:09:47.176Z,51.74
2018-07-02T03:12:14.666Z,51.52
2018-07-02T03:14:42.215Z,51.48
2018-07-02T03:17:09.964Z,51.59
2018-07-02T03:19:37.519Z,52.00
2018-07-02T03:22:05.446Z,52.16
2018-07-02T03:24:33.022Z,52.59
2018-07-02T03:27:00.571Z,51.65
2018-07-02T03:29:28.316Z,51.49
2018-07-02T03:31:55.919Z,52.04
2018-07-02T03:34:23.660Z,51.82
2018-07-02T03:36:51.211Z,52.41
2018-07-02T03:39:18.798Z,52.58
2018-07-02T03:41:46.518Z,52.86
2018-07-02T03:44:14.025Z,52.81
2018-07-02T03:46:41.775Z,53.03
2018-07-02T03:49:09.400Z,52.83
2018-07-02T03:51:36.971Z,52.67
2018-07-02T03:54:04.855Z,52.92
2018-07-02T03:56:32.427Z,52.34
2018-07-02T03:59:00.005Z,52.44
2018-07-02T04:01:27.663Z,51.78
2018-07-02T04:03:55.240Z,51.69
2018-07-02T04:06:22.954Z,51.84
2018-07-02T04:08:50.497Z,51.97
2018-07-02T04:11:18.085Z,51.76
2018-07-02T04:13:45.778Z,52.08
2018-07-02T04:16:13.358Z,52.18
2018-07-02T04:18:41.061Z,51.71
2018-07-02T04:21:08.596Z,51.28
2018-07-02T04:23:36.225Z,51.60
2018-07-02T04:26:04.007Z,51.55
2018-07-02T04:28:31.550Z,50.40
2018-07-02T04:30:59.267Z,50.24
2018-07-02T04:33:26.827Z,50.46
2018-07-02T04:35:54.358Z,50.68
2018-07-02T04:38:22.157Z,49.87
2018-07-02T04:40:49.692Z,50.07
2018-07-02T04:43:17.395Z,49.55
2018-07-02T04:45:44.995Z,49.73
2018-07-02T04:48:12.558Z,50.15
2018-07-02T04:50:40.233Z,49.79
2018-07-02T04:53:07.848Z,49.51
2018-07-02T04:55:35.386Z,49.46
2018-07-02T04:58:03.065Z,48.78
2018-07-02T05:00:30.714Z,49.21
2018-07-02T05:02:58.402Z,49.66
2018-07-02T05:05:25.930Z,48.66
2018-07-02T05:07:53.738Z,49.35
2018-07-02T05:10:21.303Z,48.51
2018-07-02T05:12:48.833Z,48.96
2018-07-02T05:15:16.427Z,49.11
2018-07-02T05:17:43.954Z,49.22
2018-07-02T05:20:11.474Z,49.60
2018-07-02T05:22:39.043Z,49.28
2018-07-02T05:25:06.587Z,48.72
2018-07-02T05:27:34.154Z,47.34
2018-07-02T05:30:01.722Z,47.19
2018-07-02T05:32:29.254Z,46.71
2018-07-02T05:34:56.802Z,46.36
2018-07-02T05:37:24.353Z,45.58
2018-07-02T05:39:51.864Z,45.94
2018-07-02T05:42:19.392Z,45.67
2018-07-02T05:44:46.940Z,46.66
2018-07-02T05:47:14.467Z,46.83
2018-07-02T05:49:41.991Z,46.66
2018-07-02T05:52:09.551Z,46.36
2018-07-02T05:54:38.221Z,46.38
2018-07-02T05:57:05.887Z,46.20
2018-07-02T05:59:33.437Z,46.79
2018-07-02T06:02:01.196Z,45.78
2018-07-02T06:04:28.518Z,45.47
2018-07-02T06:06:56.151Z,44.95
2018-07-02T06:09:23.675Z,45.16
2018-07-02T06:11:51.222Z,44.42
2018-07-02T06:14:18.798Z,43.13
2018-07-02T06:16:46.314Z,42.00
2018-07-02T06:19:13.845Z,42.86
2018-07-02T06:21:41.394Z,42.46
2018-07-02T06:24:08.946Z,43.65
2018-07-02T06:26:36.484Z,43.08
2018-07-02T06:29:04.145Z,43.08
2018-07-02T06:31:31.691Z,41.59
2018-07-02T06:33:59.802Z,41.76
2018-07-02T06:36:27.374Z,41.95
2018-07-02T06:38:54.926Z,42.05
2018-07-02T06:41:22.579Z,41.64
2018-07-02T06:43:50.122Z,39.89
2018-07-02T06:46:17.663Z,40.91
2018-07-02T06:48:45.191Z,40.94
2018-07-02T06:51:12.746Z,40.80
2018-07-02T06:53:40.359Z,39.57
2018-07-02T06:56:07.894Z,40.42
2018-07-02T06:58:35.495Z,40.25
2018-07-02T07:01:03.115Z,40.99
2018-07-02T07:03:30.658Z,41.45
2018-07-02T07:05:58.222Z,41.04
2018-07-02T07:08:25.754Z,40.46
2018-07-02T07:10:53.268Z,39.52
2018-07-02T07:13:20.822Z,38.41
2018-07-02T07:15:48.354Z,38.23
2018-07-02T07:18:15.894Z,39.16
2018-07-02T07:20:43.456Z,38.29
2018-07-02T07:23:10.994Z,37.61
2018-07-02T07:25:38.545Z,35.78
2018-07-02T07:28:06.131Z,34.86
2018-07-02T07:30:33.680Z,34.40
2018-07-02T07:33:01.210Z,33.73
2018-07-02T07:35:28.763Z,33.77
2018-07-02T07:37:56.320Z,33.10
2018-07-02T07:40:23.875Z,32.72
2018-07-02T07:42:51.409Z,31.80
2018-07-02T07:45:18.959Z,30.74
2018-07-02T07:47:46.512Z,30.41
2018-07-02T07:50:14.081Z,31.09
2018-07-02T07:52:41.627Z,30.89
2018-07-02T07:55:09.668Z,29.45
2018-07-02T07:57:37.251Z,28.18
2018-07-02T08:00:05.331Z,28.26
2018-07-02T08:02:33.201Z,27.60
2018-07-02T08:05:00.743Z,27.54
2018-07-02T08:07:28.262Z,28.60
2018-07-02T08:09:55.783Z,27.99
2018-07-02T08:12:23.402Z,27.38
2018-07-02T08:14:50.915Z,25.52
2018-07-02T08:17:18.450Z,25.33
2018-07-02T08:19:45.985Z,25.94
2018-07-02T08:22:13.530Z,25.96
2018-07-02T08:24:41.133Z,26.45
2018-07-02T08:27:08.730Z,25.65
2018-07-02T08:29:36.246Z,26.88
2018-07-02T08:32:04.326Z,26.03
2018-07-02T08:34:31.923Z,25.64
2018-07-02T08:36:59.475Z,26.26
2018-07-02T08:39:27.036Z,26.67
2018-07-02T08:41:54.620Z,25.28
2018-07-02T08:44:22.257Z,25.70
2018-07-02T08:46:49.829Z,24.23
2018-07-02T08:49:17.350Z,24.28
2018-07-02T08:51:44.906Z,22.85
2018-07-02T08:54:12.542Z,22.83
2018-07-02T08:56:40.145Z,22.82
2018-07-02T08:59:07.658Z,22.54
2018-07-02T09:01:35.224Z,22.75
2018-07-02T09:04:02.813Z,22.45
2018-07-02T09:06:30.327Z,21.65
2018-07-02T09:08:57.919Z,20.40
2018-07-02T09:11:25.469Z,19.96
2018-07-02T09:13:53.039Z,20.43
2018-07-02T09:16:20.567Z,19.64
2018-07-02T09:18:48.129Z,21.05
2018-07-02T09:21:15.675Z,19.65
2018-07-02T09:23:44.133Z,19.66
2018-07-02T09:26:11.753Z,20.14
2018-07-02T09:28:39.291Z,19.91
2018-07-02T09:31:06.947Z,19.89
2018-07-02T09:33:34.494Z,19.91
2018-07-02T09:36:02.054Z,19.12
2018-07-02T09:38:29.558Z,19.06
2018-07-02T09:40:57.144Z,17.23
2018-07-02T09:43:24.678Z,17.21
2018-07-02T09:45:52.219Z,17.45
2018-07-02T09:48:19.796Z,18.14
2018-07-02T09:50:47.298Z,17.88
2018-07-02T09:53:14.846Z,18.46
2018-07-02T09:55:42.422Z,19.57
2018-07-02T09:58:09.993Z,17.96
2018-07-02T10:00:37.670Z,18.26
2018-07-02T10:03:07.257Z,17.50
2018-07-02T10:05:34.783Z,18.02
2018-07-02T10:08:02.306Z,17.29
2018-07-02T10:10:29.875Z,17.02
2018-07-02T10:12:57.417Z,17.83
2018-07-02T10:15:24.966Z,17.27
2018-07-02T10:17:52.523Z,17.37
2018-07-02T10:20:20.151Z,17.70
2018-07-02T10:22:47.742Z,18.40
2018-07-02T10:25:15.316Z,17.52
2018-07-02T10:27:42.846Z,17.74
2018-07-02T10:30:10.366Z,15.96
2018-07-02T10:32:37.918Z,15.64
2018-07-02T10:35:05.457Z,15.59
2018-07-02T10:37:32.986Z,14.96
2018-07-02T10:40:01.446Z,16.53
2018-07-02T10:42:29.014Z,15.84
2018-07-02T10:44:56.546Z,16.25
2018-07-02T10:47:24.098Z,16.07
2018-07-02T10:49:52.257Z,15.73
2018-07-02T10:52:19.815Z,15.55
2018-07-02T10:54:47.342Z,15.23
2018-07-02T10:57:14.887Z,15.03
2018-07-02T10:59:42.435Z,15.03
2018-07-02T11:02:10.008Z,14.76
2018-07-02T11:04:37.538Z,13.97
2018-07-02T11:07:05.063Z,12.17
2018-07-02T11:09:32.617Z,12.82
2018-07-02T11:12:00.152Z,12.66
2018-07-02T11:14:27.671Z,12.39
2018-07-02T11:16:55.246Z,12.92
2018-07-02T11:19:22.850Z,13.52
2018-07-02T11:21:50.480Z,13.86
2018-07-02T11:24:18.030Z,13.23
2018-07-02T11:26:45.531Z,13.42
2018-07-02T11:29:13.067Z,12.81
2018-07-02T11:31:40.615Z,12.75
2018-07-02T11:34:08.162Z,12.59
2018-07-02T11:36:35.722Z,12.57
2018-07-02T11:39:05.689Z,12.02
2018-07-02T11:41:33.222Z,12.50
2018-07-02T11:44:00.753Z,12.24
2018-07-02T11:46:28.330Z,12.50
2018-07-02T11:48:55.862Z,12.12
2018-07-02T11:51:23.394Z,12.34
2018-07-02T11:53:50.966Z,12.45
2018-07-02T11:56:18.509Z,12.65
2018-07-02T11:58:46.067Z,12.26
2018-07-02T12:01:13.659Z,11.41
2018-07-02T12:03:41.250Z,11.51
2018-07-02T12:06:08.813Z,11.72
2018-07-02T12:08:36.383Z,11.34
2018-07-02T12:11:03.914Z,11.56
2018-07-02T12:13:31.439Z,10.95
2018-07-02T12:15:58.999Z,11.64
2018-07-02T12:18:26.562Z,12.29
2018-07-02T12:20:54.074Z,11.79
2018-07-02T12:23:21.691Z,11.98
2018-07-02T12:25:49.238Z,11.13
2018-07-02T12:28:16.794Z,11.42
2018-07-02T12:30:44.842Z,9.93
2018-07-02T12:33:12.377Z,10.21
2018-07-02T12:35:39.913Z,9.86
2018-07-02T12:38:07.509Z,9.75
2018-07-02T12:40:35.043Z,10.92
2018-07-02T12:43:02.582Z,10.08
2018-07-02T12:45:30.127Z,9.78
2018-07-02T12:47:57.650Z,10.16
2018-07-02T12:50:25.324Z,9.40
2018-07-02T12:52:53.274Z,9.54
2018-07-02T12:55:20.822Z,10.30
2018-07-02T12:57:48.334Z,10.13
2018-07-02T13:00:15.970Z,8.96
2018-07-02T13:02:43.542Z,9.54
2018-07-02T13:05:11.119Z,8.81
2018-07-02T13:07:38.746Z,9.34
2018-07-02T13:10:06.823Z,9.19
2018-07-02T13:12:34.405Z,9.16
2018-07-02T13:15:02.022Z,8.77
2018-07-02T13:17:29.546Z,8.16
2018-07-02T13:19:57.072Z,8.84
2018-07-02T13:22:24.655Z,8.83
2018-07-02T13:24:52.410Z,8.67
2018-07-02T13:27:20.046Z,8.65
2018-07-02T13:29:47.636Z,8.39
2018-07-02T13:32:15.249Z,8.84
2018-07-02T13:34:42.754Z,9.04
2018-07-02T13:37:10.385Z,9.07
2018-07-02T13:39:37.930Z,8.19
2018-07-02T13:42:05.500Z,7.88
2018-07-02T13:44:33.056Z,8.61
2018-07-02T13:47:00.610Z,8.20
2018-07-02T13:49:28.516Z,8.10
2018-07-02T13:51:56.070Z,8.22
2018-07-02T13:54:23.613Z,8.37
2018-07-02T13:56:51.155Z,9.52
2018-07-02T13:59:18.743Z,8.31
2018-07-02T14:01:46.279Z,8.07
2018-07-02T14:04:14.053Z,8.40
2018-07-02T14:06:41.663Z,8.62
2018-07-02T14:09:10.398Z,8.65
2018-07-02T14:11:38.774Z,8.72
2018-07-02T14:14:06.351Z,7.66
2018-07-02T14:16:33.975Z,8.04
2018-07-02T14:19:01.542Z,8.40
2018-07-02T14:21:29.135Z,8.17
2018-07-02T14:23:56.758Z,8.92
2018-07-02T14:26:24.305Z,9.02
2018-07-02T14:28:52.078Z,8.52
2018-07-02T14:31:19.635Z,8.41
2018-07-02T14:33:47.179Z,8.03
2018-07-02T14:36:14.755Z,8.72
2018-07-02T14:38:42.270Z,8.57
2018-07-02T14:41:09.787Z,8.86
2018-07-02T14:43:38.005Z,9.14
2018-07-02T14:46:05.574Z,9.51
2018-07-02T14:48:33.115Z,9.26
2018-07-02T14:51:00.825Z,9.46
2018-07-02T14:53:28.348Z,9.17
2018-07-02T14:55:55.883Z,9.29
2018-07-02T14:58:23.598Z,9.72
2018-07-02T15:00:51.125Z,11.19
2018-07-02T15:03:18.658Z,11.67
2018-07-02T15:05:46.410Z,11.91
2018-07-02T15:08:13.963Z,12.31
2018-07-02T15:10:41.526Z,12.28
2018-07-02T15:13:09.094Z,13.07
2018-07-02T15:15:36.752Z,13.68
2018-07-02T15:18:04.619Z,13.36
2018-07-02T15:20:32.163Z,14.25
2018-07-02T15:22:59.752Z,15.08
2018-07-02T15:25:27.310Z,14.29
2018-07-02T15:27:54.891Z,14.68
2018-07-02T15:30:22.542Z,15.45
2018-07-02T15:32:50.074Z,15.98
2018-07-02T15:35:17.638Z,16.17
2018-07-02T15:37:45.190Z,16.80
2018-07-02T15:40:12.716Z,17.34
2018-07-02T15:42:40.293Z,17.72
2018-07-02T15:45:07.923Z,17.85
2018-07-02T15:47:35.457Z,17.41
2018-07-02T15:50:03.126Z,17.05
2018-07-02T15:52:30.674Z,17.26
2018-07-02T15:54:58.174Z,18.12
2018-07-02T15:57:25.749Z,18.08
2018-07-02T15:59:53.378Z,16.84
2018-07-02T16:02:20.955Z,17.56
2018-07-02T16:04:48.570Z,16.94
2018-07-02T16:07:16.746Z,17.17
2018-07-02T16:09:44.458Z,16.89
2018-07-02T16:12:12.045Z,18.08
2018-07-02T16:14:39.580Z,18.75
2018-07-02T16:17:07.143Z,18.97
2018-07-02T16:19:34.718Z,18.89
2018-07-02T16:22:02.295Z,18.33
2018-07-02T16:24:30.048Z,18.75
2018-07-02T16:26:57.654Z,18.88
2018-07-02T16:29:25.251Z,18.23
2018-07-02T16:31:52.975Z,18.39
2018-07-02T16:34:20.629Z,18.62
2018-07-02T16:36:48.258Z,19.33
2018-07-02T16:39:15.818Z,19.57
2018-07-02T16:41:43.379Z,18.81
2018-07-02T16:44:10.910Z,19.06
2018-07-02T16:46:38.524Z,19.22
2018-07-02T16:49:06.122Z,19.37
2018-07-02T16:51:34.351Z,18.33
2018-07-02T16:54:02.343Z,18.92
2018-07-02T16:56:29.953Z,18.37
2018-07-02T16:58:57.494Z,18.42
2018-07-02T17:01:25.054Z,19.43
2018-07-02T17:03:52.632Z,18.79
2018-07-02T17:06:20.315Z,18.74
2018-07-02T17:08:47.824Z,18.71
2018-07-02T17:11:16.491Z,19.68
2018-07-02T17:13:44.039Z,19.40
2018-07-02T17:16:11.614Z,19.15
2018-07-02T17:18:39.218Z,19.87
2018-07-02T17:21:06.789Z,19.93
2018-07-02T17:23:34.520Z,19.61
2018-07-02T17:26:02.087Z,20.03
2018-07-02T17:28:29.649Z,20.47
2018-07-02T17:30:57.210Z,19.93
2018-07-02T17:33:24.838Z,20.25
2018-07-02T17:35:52.366Z,20.56
2018-07-02T17:38:19.914Z,20.41
2018-07-02T17:40:47.657Z,21.06
2018-07-02T17:43:15.174Z,20.98
2018-07-02T17:45:42.758Z,21.09
2018-07-02T17:48:10.294Z,20.36
2018-07-02T17:50:37.966Z,20.66
2018-07-02T17:53:05.675Z,20.76
2018-07-02T17:55:33.226Z,20.79
2018-07-02T17:58:00.780Z,21.13
2018-07-02T18:00:28.506Z,21.05
2018-07-02T18:02:56.202Z,21.12
2018-07-02T18:05:23.801Z,21.01
2018-07-02T18:07:51.314Z,21.07
2018-07-02T18:10:19.552Z,21.48
2018-07-02T18:12:48.783Z,21.60
2018-07-02T18:15:16.328Z,21.45
2018-07-02T18:17:43.931Z,21.99
2018-07-02T18:20:11.620Z,21.67
2018-07-02T18:22:39.278Z,22.11
2018-07-02T18:25:07.355Z,22.04
2018-07-02T18:27:34.890Z,22.46
2018-07-02T18:30:04.054Z,22.15
2018-07-02T18:32:31.682Z,22.69
2018-07-02T18:34:59.386Z,22.50
2018-07-02T18:37:27.286Z,23.01
2018-07-02T18:39:55.740Z,22.62
2018-07-02T18:42:23.401Z,22.97
2018-07-02T18:44:50.922Z,22.97
2018-07-02T18:47:18.692Z,23.77
2018-07-02T18:49:46.446Z,23.27
2018-07-02T18:52:14.034Z,23.62
2018-07-02T18:54:41.647Z,24.03
2018-07-02T18:57:09.378Z,23.97
2018-07-02T18:59:38.033Z,24.37
2018-07-02T19:02:05.777Z,24.44
2018-07-02T19:04:33.398Z,24.73
2018-07-02T19:07:01.026Z,25.08
2018-07-02T19:09:28.960Z,25.70
2018-07-02T19:11:56.718Z,25.91
2018-07-02T19:14:24.257Z,25.93
2018-07-02T19:16:51.942Z,27.11
2018-07-02T19:19:19.695Z,27.74
2018-07-02T19:21:47.598Z,27.91
2018-07-02T19:24:15.183Z,28.10
2018-07-02T19:26:42.723Z,28.83
2018-07-02T19:29:11.326Z,28.89
2018-07-02T19:31:39.258Z,29.38
2018-07-02T19:34:07.042Z,28.54
2018-07-02T19:36:34.574Z,29.16
2018-07-02T19:39:02.230Z,28.61
2018-07-02T19:41:30.036Z,29.35
2018-07-02T19:43:57.933Z,29.41
2018-07-02T19:46:25.532Z,28.62
2018-07-02T19:48:53.070Z,29.06
2018-07-02T19:51:20.687Z,28.70
2018-07-02T19:53:48.573Z,28.85
2018-07-02T19:56:16.251Z,29.38
2018-07-02T19:58:43.858Z,29.33
2018-07-02T20:01:11.442Z,29.37
2018-07-02T20:03:39.042Z,29.54
2018-07-02T20:06:06.654Z,29.50
2018-07-02T20:08:34.339Z,30.09
2018-07-02T20:11:01.961Z,30.31
2018-07-02T20:13:29.582Z,29.49
2018-07-02T20:15:57.143Z,30.08
2018-07-02T20:18:24.719Z,30.18
2018-07-02T20:20:52.278Z,29.93
2018-07-02T20:23:19.946Z,30.29
2018-07-02T20:25:47.496Z,30.54
2018-07-02T20:28:16.126Z,30.37
2018-07-02T20:30:43.698Z,30.39
2018-07-02T20:33:11.546Z,30.67
2018-07-02T20:35:39.129Z,30.72
2018-07-02T20:38:06.751Z,31.29
2018-07-02T20:40:34.318Z,31.07
2018-07-02T20:43:01.847Z,31.13
2018-07-02T20:45:29.611Z,31.32
2018-07-02T20:47:57.174Z,32.00
2018-07-02T20:50:24.705Z,31.44
2018-07-02T20:52:52.450Z,31.18
2018-07-02T20:55:20.003Z,32.06
2018-07-02T20:57:47.542Z,31.91
2018-07-02T21:00:15.115Z,31.97
2018-07-02T21:02:42.667Z,32.22
2018-07-02T21:05:12.382Z,32.45
2018-07-02T21:07:40.234Z,32.97
2018-07-02T21:10:08.046Z,33.03
2018-07-02T21:12:35.578Z,32.88
2018-07-02T21:15:03.224Z,33.72
2018-07-02T21:17:30.787Z,34.32
2018-07-02T21:19:58.354Z,33.99
2018-07-02T21:22:25.981Z,34.13
2018-07-02T21:24:53.558Z,34.30
2018-07-02T21:27:21.098Z,33.79
2018-07-02T21:29:48.674Z,33.71
2018-07-02T21:32:16.194Z,34.57
2018-07-02T21:34:43.749Z,34.10
2018-07-02T21:37:11.329Z,33.70
2018-07-02T21:39:38.902Z,33.59
2018-07-02T21:42:06.490Z,34.01
2018-07-02T21:44:34.056Z,34.32
2018-07-02T21:47:01.614Z,34.61
2018-07-02T21:49:29.151Z,34.95
2018-07-02T21:51:56.703Z,35.36
2018-07-02T21:54:24.209Z,35.33
2018-07-02T21:56:51.802Z,35.66
2018-07-02T21:59:19.384Z,35.44
2018-07-02T22:01:46.990Z,35.42
2018-07-02T22:04:14.527Z,35.38
2018-07-02T22:06:42.233Z,35.36
2018-07-02T22:09:10.731Z,35.67
2018-07-02T22:11:38.350Z,35.59
2018-07-02T22:14:05.981Z,35.21
2018-07-02T22:16:33.634Z,35.56
2018-07-02T22:19:01.170Z,35.38
2018-07-02T22:21:28.787Z,35.83
2018-07-02T22:23:56.350Z,36.37
2018-07-02T22:26:23.914Z,36.78
2018-07-02T22:28:51.486Z,36.53
2018-07-02T22:31:19.070Z,37.40
2018-07-02T22:33:46.614Z,37.23
2018-07-02T22:36:14.219Z,37.30
2018-07-02T22:38:41.759Z,37.37
2018-07-02T22:41:09.311Z,37.22
2018-07-02T22:43:36.880Z,36.86
2018-07-02T22:46:04.498Z,37.14
2018-07-02T22:48:32.080Z,37.55
2018-07-02T22:50:59.685Z,37.77
2018-07-02T22:53:27.230Z,37.63
2018-07-02T22:55:59.408Z,37.75
2018-07-02T22:58:26.995Z,37.90
2018-07-02T23:00:54.827Z,38.17
2018-07-02T23:03:22.414Z,38.27
2018-07-02T23:05:49.998Z,38.42
2018-07-02T23:08:17.526Z,38.29
2018-07-02T23:10:45.115Z,38.43
2018-07-02T23:13:12.635Z,38.75
2018-07-02T23:15:40.213Z,39.06
2018-07-02T23:18:07.783Z,38.82
2018-07-02T23:20:35.319Z,38.74
2018-07-02T23:23:03.792Z,38.96
2018-07-02T23:25:31.426Z,39.31
2018-07-02T23:28:00.139Z,38.87
2018-07-02T23:30:28.718Z,38.99
2018-07-02T23:32:56.280Z,39.08
2018-07-02T23:35:23.900Z,39.58
2018-07-02T23:37:52.093Z,39.48
2018-07-02T23:40:21.367Z,39.90
2018-07-02T23:42:49.606Z,40.12
2018-07-02T23:45:17.138Z,40.12
2018-07-02T23:47:44.731Z,40.16
2018-07-02T23:50:12.284Z,40.56
2018-07-02T23:52:40.266Z,39.86
2018-07-02T23:55:07.797Z,39.69
2018-07-02T23:57:35.441Z,39.95
